Blumenthal, Texas
Current Conditions -  °F | °C
As of 12:55 AM on Sunday 26 Oct 2014 (Local Time) from KT82 Reporting Station
Clear Clear  
Wind Chill: 57°   Ceiling: Unl
Heat Index: 57°   Visibility: 10mi
Dew Point: 53°   Wind: 3mph
Humidity: 85%   Direction: 320°NW
Pressure: 30.11"   Gusts: NA
Location:  30.3069°N, 98.8978°W
Report Text: KT82 260555Z AUTO 32003KT 10SM CLR 14/12 A3011 RMK AO2 T01400116 10251 20138 402860122
Loading
Personal Weather Stations






























Interactive Weather Map
Tropical Storm Tracking
New forecast layout! Learn more

10-Day Weather Forecast

Advertisements
Track Severe Weather on mobile